This is the latest recevied weather packets stored in our database for station/object DH9SB-6. If no packets are shown the sender has not sent any weather packets the latest 10 day(s).
| Time | Temp. | Humidity | Pressure | Rain* | Wind** | Luminosity | Snow |
|---|---|---|---|---|---|---|---|
| 1777530163 | 8.89° C | 35% | - | 0 mm | - | - | - |
| 1777529582 | 8.89° C | 37% | - | 0 mm | - | - | - |
| 1777528959 | 8.33° C | 38% | - | 0 mm | - | - | - |
| 1777528385 | 7.78° C | 40% | - | 0 mm | - | - | - |
| 1777527759 | 7.22° C | 44% | - | 0 mm | - | - | - |
| 1777527183 | 7.22° C | 44% | - | 0 mm | - | - | - |
| 1777526561 | 6.67° C | 46% | - | 0 mm | - | - | - |
| 1777525982 | 6.67° C | 46% | - | 0 mm | - | - | - |
| 1777525359 | 6.11° C | 46% | - | 0 mm | - | - | - |
| 1777524783 | 6.11° C | 45% | - | 0 mm | - | - | - |
| 1777524207 | 6.11° C | 45% | - | 0 mm | - | - | - |
| 1777523583 | 6.11° C | 45% | - | 0 mm | - | - | - |
| 1777522958 | 6.11° C | 45% | - | 0 mm | - | - | - |
| 1777522382 | 6.11° C | 45% | - | 0 mm | - | - | - |
| 1777521759 | 6.11° C | 44% | - | 0 mm | - | - | - |
| 1777521183 | 6.11° C | 44% | - | 0 mm | - | - | - |
| 1777520559 | 6.67° C | 44% | - | 0 mm | - | - | - |
| 1777519987 | 6.67° C | 44% | - | 0 mm | - | - | - |
| 1777519359 | 6.67° C | 44% | - | 0 mm | - | - | - |
| 1777518784 | 6.67° C | 43% | - | 0 mm | - | - | - |
| 1777518158 | 6.67° C | 43% | - | 0 mm | - | - | - |
| 1777517583 | 7.22° C | 43% | - | 0 mm | - | - | - |
| 1777516964 | 7.22° C | 42% | - | 0 mm | - | - | - |
| 1777516382 | 7.22° C | 42% | - | 0 mm | - | - | - |
| 1777515758 | 7.78° C | 36% | - | 0 mm | - | - | - |
* Rain latest hour (hover to see other rain measurements)
** Current wind speed in m/s (hover to see current wind gust speed)